Time;durP1;ratioP1;P1;durP2;ratioP2;P2;SDS_P1;SDS_P2;PMS_P1;PMS_P2;Temp;Humidity;BMP_temperature;BMP_pressure;BME280_temperature;BME280_humidity;BME280_pressure;Samples;Min_cycle;Max_cycle;Signal;HPM_P1;HPM_P2
2023/04/03 00:00:51;;;;;;;1.92;1.45;;;;;;;5.13;90.12;103085.91;4889702;29;20036;-87
2023/04/03 00:03:18;;;;;;;3.63;1.58;;;;;;;4.91;90.41;103064.09;4884425;29;21401;-87
2023/04/03 00:05:44;;;;;;;2.63;1.75;;;;;;;5.16;90.21;103090.88;4907525;29;20032;-87
2023/04/03 00:08:09;;;;;;;4.93;2.00;;;;;;;4.88;90.15;103079.38;4900585;29;20038;-87
2023/04/03 00:10:36;;;;;;;4.47;2.30;;;;;;;5.00;90.66;103081.81;4890824;29;20040;-87
2023/04/03 00:13:02;;;;;;;2.22;1.60;;;;;;;4.80;90.84;103093.84;4886626;29;20039;-87
2023/04/03 00:15:28;;;;;;;1.75;1.23;;;;;;;4.95;90.88;103090.97;4904985;29;20030;-87
2023/04/03 00:17:53;;;;;;;9.65;3.03;;;;;;;4.95;91.12;103102.09;4885955;29;20031;-86
2023/04/03 00:20:18;;;;;;;3.08;2.10;;;;;;;4.99;90.22;103097.63;4903292;29;20063;-87
2023/04/03 00:22:44;;;;;;;3.00;1.60;;;;;;;4.81;90.54;103093.56;4921505;29;20060;-87
2023/04/03 00:25:09;;;;;;;2.38;1.70;;;;;;;4.73;91.29;103096.09;4903239;29;20379;-87
2023/04/03 00:27:37;;;;;;;6.22;1.88;;;;;;;4.88;90.57;103098.78;4906192;29;20041;-86
2023/04/03 00:30:03;;;;;;;3.22;2.05;;;;;;;4.90;89.58;103096.56;4909836;29;20431;-86
2023/04/03 00:32:29;;;;;;;3.22;1.65;;;;;;;4.83;91.43;103090.50;4921935;29;20371;-87
2023/04/03 00:34:54;;;;;;;3.13;2.00;;;;;;;4.82;90.71;103095.22;4906824;29;20020;-86
2023/04/03 00:37:20;;;;;;;2.92;1.98;;;;;;;4.84;90.62;103106.03;4903249;29;20065;-87
2023/04/03 00:39:45;;;;;;;2.47;1.70;;;;;;;4.79;90.16;103097.75;4901233;29;20039;-86
2023/04/03 00:42:11;;;;;;;2.13;1.55;;;;;;;4.53;91.11;103089.50;4897044;29;20139;-86
2023/04/03 00:44:36;;;;;;;5.93;2.13;;;;;;;4.73;90.92;103093.31;4901769;29;20074;-87
2023/04/03 00:47:05;;;;;;;3.60;1.60;;;;;;;4.81;91.92;103110.22;4918013;29;20471;-87
2023/04/03 00:49:31;;;;;;;5.57;2.95;;;;;;;4.42;91.85;103107.28;4904133;29;20513;-87
2023/04/03 00:51:58;;;;;;;6.38;2.10;;;;;;;4.51;91.34;103107.53;4919330;29;20578;-86
2023/04/03 00:54:25;;;;;;;5.88;1.83;;;;;;;4.47;92.64;103108.09;4900107;29;20034;-86
2023/04/03 00:56:51;;;;;;;3.88;2.00;;;;;;;4.71;92.70;103096.38;4913428;29;20534;-86
2023/04/03 00:59:22;;;;;;;2.97;1.60;;;;;;;4.57;91.14;103107.22;4896835;29;20036;-86
2023/04/03 01:01:49;;;;;;;5.65;2.40;;;;;;;4.50;92.58;103103.94;4900861;29;20043;-86
2023/04/03 01:04:31;;;;;;;4.25;2.60;;;;;;;4.45;92.93;103109.50;4919791;29;20027;-87
2023/04/03 01:07:11;;;;;;;2.42;1.90;;;;;;;4.50;93.60;103112.25;4899851;29;20093;-87
2023/04/03 01:09:37;;;;;;;3.42;1.90;;;;;;;4.55;92.71;103108.63;4898532;29;20131;-87
2023/04/03 01:12:25;;;;;;;3.72;1.92;;;;;;;4.38;91.65;103106.19;4899700;29;20044;-86
2023/04/03 01:15:16;;;;;;;3.65;1.67;;;;;;;4.61;92.80;103119.41;4922032;29;20227;-87
2023/04/03 01:17:53;;;;;;;2.35;2.00;;;;;;;4.56;92.37;103125.00;4892443;29;20386;-87
2023/04/03 01:20:28;;;;;;;3.67;1.95;;;;;;;4.51;92.31;103118.63;4889202;29;20570;-87
2023/04/03 01:22:58;;;;;;;4.53;1.63;;;;;;;4.57;92.79;103118.31;4904290;29;20090;-86
2023/04/03 01:25:24;;;;;;;3.10;1.73;;;;;;;4.45;93.57;103104.78;4904407;29;20035;-86
2023/04/03 01:27:50;;;;;;;3.55;2.00;;;;;;;4.41;92.91;103120.31;4898422;29;20031;-87
2023/04/03 01:30:18;;;;;;;2.47;1.70;;;;;;;4.57;93.15;103115.56;4895597;29;20046;-87
2023/04/03 01:32:44;;;;;;;3.83;2.13;;;;;;;4.48;93.32;103114.47;4899399;29;20078;-86
2023/04/03 01:35:10;;;;;;;2.67;1.83;;;;;;;4.53;93.09;103128.31;4914166;29;20019;-86
2023/04/03 01:37:36;;;;;;;3.50;1.98;;;;;;;4.42;93.33;103121.16;4905138;29;20573;-86
2023/04/03 01:40:02;;;;;;;4.50;2.15;;;;;;;4.25;94.50;103119.50;4903290;29;20050;-87
2023/04/03 01:42:27;;;;;;;10.48;2.15;;;;;;;4.17;94.17;103125.63;4917553;29;20027;-86
2023/04/03 01:44:53;;;;;;;3.47;2.00;;;;;;;4.38;93.93;103129.19;4904016;29;20039;-86
2023/04/03 01:47:18;;;;;;;6.57;2.35;;;;;;;4.15;93.77;103127.84;4907888;29;20027;-86
2023/04/03 01:49:43;;;;;;;3.17;1.90;;;;;;;4.18;92.78;103127.28;4922835;29;20039;-86
2023/04/03 01:52:09;;;;;;;4.22;1.60;;;;;;;4.18;94.93;103129.25;4909006;29;20087;-87
2023/04/03 01:54:34;;;;;;;5.28;2.05;;;;;;;4.35;94.63;103128.94;4921619;29;20118;-86
2023/04/03 01:57:01;;;;;;;5.80;2.00;;;;;;;4.31;94.62;103108.44;4903730;29;20416;-86
2023/04/03 01:59:26;;;;;;;5.00;2.33;;;;;;;4.20;94.58;103119.53;4894785;29;20395;-86
2023/04/03 02:01:51;;;;;;;4.50;1.90;;;;;;;4.24;94.53;103126.19;4908432;29;20552;-86
2023/04/03 02:04:17;;;;;;;4.18;2.13;;;;;;;4.24;94.04;103130.91;4905298;29;20044;-86
2023/04/03 02:06:42;;;;;;;5.78;2.63;;;;;;;3.91;93.57;103127.59;4885144;29;20059;-86
2023/04/03 02:09:07;;;;;;;4.07;2.00;;;;;;;3.99;94.30;103128.97;4902783;29;20039;-85
2023/04/03 02:11:33;;;;;;;4.93;2.17;;;;;;;4.10;94.86;103125.09;4886657;29;20104;-86
2023/04/03 02:13:58;;;;;;;3.17;1.98;;;;;;;4.08;94.16;103128.13;4893168;29;20163;-86
2023/04/03 02:16:23;;;;;;;5.82;2.30;;;;;;;4.05;92.60;103120.38;4886663;29;20028;-86
2023/04/03 02:18:49;;;;;;;4.95;2.30;;;;;;;3.77;94.47;103119.00;4909600;29;20055;-86
2023/04/03 02:21:15;;;;;;;4.50;2.22;;;;;;;3.93;96.16;103133.69;4893802;29;20070;-85
2023/04/03 02:23:40;;;;;;;3.50;2.05;;;;;;;3.78;95.99;103136.47;4884212;29;20039;-87
2023/04/03 02:26:08;;;;;;;6.55;2.10;;;;;;;3.83;95.22;103120.66;4888294;29;20443;-85
2023/04/03 02:28:34;;;;;;;4.53;2.13;;;;;;;3.91;95.76;103140.63;4896798;29;20171;-86
2023/04/03 02:30:59;;;;;;;4.30;2.83;;;;;;;3.86;96.03;103139.50;4890589;29;20418;-86
2023/04/03 02:33:24;;;;;;;8.40;2.88;;;;;;;4.02;95.44;103147.81;4905546;29;20609;-86
2023/04/03 02:35:56;;;;;;;5.25;1.92;;;;;;;3.80;95.26;103146.16;4909513;29;20461;-86
2023/04/03 02:38:23;;;;;;;8.13;2.00;;;;;;;4.00;95.05;103152.81;4905155;29;20031;-86
2023/04/03 02:40:48;;;;;;;5.22;2.60;;;;;;;4.16;94.76;103159.19;4905688;29;20286;-86
2023/04/03 02:43:14;;;;;;;4.65;1.85;;;;;;;4.01;95.58;103165.56;4882175;29;20035;-87
2023/04/03 02:45:39;;;;;;;2.72;1.83;;;;;;;4.02;94.89;103156.13;4883420;29;20035;-86
2023/04/03 02:48:05;;;;;;;4.97;2.15;;;;;;;4.07;94.74;103158.91;4886446;29;21659;-87
2023/04/03 02:50:30;;;;;;;4.78;1.85;;;;;;;4.02;94.88;103148.63;4885547;29;20145;-87
2023/04/03 02:52:55;;;;;;;17.13;3.47;;;;;;;4.08;94.78;103149.47;4916265;29;20514;-87
2023/04/03 02:55:21;;;;;;;4.70;2.08;;;;;;;4.00;95.08;103148.09;4903449;29;20073;-87
2023/04/03 02:57:47;;;;;;;5.28;2.28;;;;;;;3.90;94.96;103169.41;4922570;29;20086;-87
2023/04/03 03:00:13;;;;;;;3.72;2.05;;;;;;;3.83;96.00;103167.75;4904288;29;20049;-87
2023/04/03 03:02:38;;;;;;;2.97;1.98;;;;;;;3.79;95.91;103169.41;4924130;29;20027;-87
2023/04/03 03:05:04;;;;;;;4.20;2.20;;;;;;;3.69;95.31;103149.19;4925786;29;20051;-87
2023/04/03 03:07:29;;;;;;;7.10;2.83;;;;;;;3.77;96.96;103174.38;4896489;29;20746;-86
2023/04/03 03:09:55;;;;;;;2.65;1.83;;;;;;;3.96;95.73;103179.41;4888283;29;20143;-87
2023/04/03 03:12:21;;;;;;;5.75;1.98;;;;;;;3.78;96.35;103167.75;4902598;29;20545;-87
2023/04/03 03:14:47;;;;;;;5.57;3.08;;;;;;;3.94;95.12;103165.00;4914778;29;20028;-87
2023/04/03 03:17:13;;;;;;;5.45;2.67;;;;;;;4.02;95.05;103167.22;4899391;29;20122;-87
2023/04/03 03:19:38;;;;;;;4.85;2.50;;;;;;;4.05;95.11;103172.22;4918998;29;20035;-87
2023/04/03 03:22:03;;;;;;;3.85;2.55;;;;;;;3.97;94.97;103175.53;4906419;29;20031;-87
2023/04/03 03:24:29;;;;;;;5.03;2.78;;;;;;;3.98;95.63;103185.50;4916895;29;20035;-87
2023/04/03 03:26:54;;;;;;;3.35;2.20;;;;;;;3.97;94.97;103181.91;4922803;29;20486;-87
2023/04/03 03:29:20;;;;;;;3.75;2.10;;;;;;;3.77;94.82;103170.81;4907981;29;20078;-87
2023/04/03 03:31:45;;;;;;;3.47;1.92;;;;;;;3.79;95.85;103179.66;4904089;29;20040;-87
2023/04/03 03:34:11;;;;;;;4.90;2.95;;;;;;;3.73;95.68;103159.47;4906323;29;20055;-87
2023/04/03 03:36:37;;;;;;;4.38;2.67;;;;;;;3.86;95.22;103167.22;4904046;29;20035;-87
2023/04/03 03:39:03;;;;;;;6.38;2.30;;;;;;;3.92;94.90;103175.53;4905003;29;20039;-87
2023/04/03 03:41:28;;;;;;;7.30;2.53;;;;;;;3.89;95.33;103184.41;4904320;29;20031;-87
2023/04/03 03:43:53;;;;;;;5.82;2.10;;;;;;;3.86;95.02;103169.16;4906263;29;20110;-87
2023/04/03 03:46:19;;;;;;;3.90;2.72;;;;;;;3.65;95.68;103162.78;4927353;29;20027;-87
2023/04/03 03:48:44;;;;;;;3.65;1.98;;;;;;;3.72;95.14;103171.63;4910706;29;20043;-87
2023/04/03 03:51:10;;;;;;;6.00;2.25;;;;;;;3.69;95.59;103180.50;4909618;29;20043;-87
2023/04/03 03:53:35;;;;;;;6.15;2.17;;;;;;;3.71;96.15;103183.84;4920185;29;20028;-87
2023/04/03 03:56:01;;;;;;;7.65;2.90;;;;;;;3.66;95.73;103187.41;4922884;29;20087;-87
2023/04/03 03:58:26;;;;;;;6.63;2.20;;;;;;;3.75;95.12;103197.94;4915313;29;20111;-87
2023/04/03 04:00:52;;;;;;;2.80;2.30;;;;;;;3.66;94.72;103194.88;4918658;29;20047;-87
2023/04/03 04:03:17;;;;;;;7.38;2.40;;;;;;;3.64;94.80;103194.31;4898090;29;20036;-87
2023/04/03 04:05:43;;;;;;;6.38;2.50;;;;;;;3.61;94.62;103201.25;4918039;29;20773;-87
2023/04/03 04:08:08;;;;;;;4.35;2.63;;;;;;;3.47;94.59;103180.72;4899099;29;20413;-87
2023/04/03 04:10:35;;;;;;;3.83;2.92;;;;;;;3.40;96.45;103192.06;4918305;29;20039;-87
2023/04/03 04:13:00;;;;;;;5.28;2.47;;;;;;;3.45;95.82;103197.59;4922349;29;20034;-87
2023/04/03 04:15:26;;;;;;;8.13;2.97;;;;;;;3.49;94.86;103194.31;4889328;29;20339;-88
2023/04/03 04:17:53;;;;;;;2.88;2.03;;;;;;;3.40;94.81;103183.75;4920838;28;20263;-87
2023/04/03 04:20:18;;;;;;;5.22;2.42;;;;;;;3.47;95.31;103198.16;4908220;29;20414;-87
2023/04/03 04:22:44;;;;;;;4.40;2.20;;;;;;;3.51;94.80;103205.94;4904819;29;20023;-87
2023/04/03 04:25:09;;;;;;;3.40;2.10;;;;;;;3.45;94.46;103211.44;4906421;29;20031;-87
2023/04/03 04:27:35;;;;;;;4.20;2.33;;;;;;;3.22;95.05;103187.84;4923584;29;20028;-87
2023/04/03 04:30:01;;;;;;;5.30;2.55;;;;;;;3.41;95.60;103218.63;4918823;29;21600;-87
2023/04/03 04:32:26;;;;;;;5.65;2.33;;;;;;;3.38;94.56;103213.66;4899240;29;20491;-86
2023/04/03 04:34:51;;;;;;;5.60;2.72;;;;;;;3.30;95.15;103208.63;4921680;29;20036;-87
2023/04/03 04:37:17;;;;;;;7.15;2.80;;;;;;;3.18;95.50;103180.34;4896695;29;20031;-87
2023/04/03 04:39:42;;;;;;;11.27;3.08;;;;;;;3.24;94.88;103201.41;4910035;29;20042;-87
2023/04/03 04:42:12;;;;;;;8.75;3.25;;;;;;;3.24;94.92;103212.47;4908840;29;20046;-87
2023/04/03 04:44:38;;;;;;;5.18;2.83;;;;;;;3.33;94.57;103210.88;4891505;29;20043;-87
2023/04/03 04:47:04;;;;;;;6.97;2.42;;;;;;;3.19;95.45;103199.47;4896019;29;20031;-88
2023/04/03 04:49:29;;;;;;;7.53;2.65;;;;;;;3.16;95.15;103215.75;4896316;29;20035;-87
2023/04/03 04:51:54;;;;;;;6.25;2.70;;;;;;;3.19;94.96;103215.25;4900516;29;20061;-87
2023/04/03 04:54:20;;;;;;;7.97;2.38;;;;;;;3.14;94.86;103229.03;4913838;29;20036;-87
2023/04/03 04:56:45;;;;;;;7.00;2.50;;;;;;;3.16;95.53;103219.38;4900281;29;20034;-87
2023/04/03 04:59:11;;;;;;;9.82;3.30;;;;;;;3.15;95.26;103226.00;4905900;29;20438;-87
2023/04/03 05:01:36;;;;;;;3.35;1.90;;;;;;;3.01;95.33;103233.94;4902916;29;20032;-87
2023/04/03 05:04:01;;;;;;;4.05;2.50;;;;;;;3.12;95.88;103236.78;4907782;29;20071;-87
2023/04/03 05:06:27;;;;;;;9.48;3.67;;;;;;;3.01;94.95;103225.66;4903732;29;20038;-86
2023/04/03 05:08:52;;;;;;;5.30;2.88;;;;;;;2.96;95.28;103235.88;4910794;29;20043;-88
2023/04/03 05:11:18;;;;;;;4.28;2.58;;;;;;;2.88;96.22;103228.09;4916408;29;20054;-87
2023/04/03 05:13:43;;;;;;;12.07;3.72;;;;;;;2.85;95.74;103213.69;4932643;29;20457;-87
2023/04/03 05:16:08;;;;;;;3.60;2.35;;;;;;;2.92;95.61;103213.44;4929012;29;20086;-87
2023/04/03 05:18:34;;;;;;;10.15;3.13;;;;;;;2.94;95.64;103216.78;4927998;29;20032;-88
2023/04/03 05:20:59;;;;;;;6.18;3.10;;;;;;;2.91;96.24;103225.63;4935184;29;20151;-87
2023/04/03 05:23:24;;;;;;;7.35;3.25;;;;;;;2.81;96.29;103226.38;4932269;29;20051;-87
2023/04/03 05:25:50;;;;;;;7.07;3.08;;;;;;;2.72;96.14;103208.66;4915962;29;20024;-88
2023/04/03 05:28:15;;;;;;;5.53;2.55;;;;;;;2.76;95.53;103207.00;4913697;29;20031;-87
2023/04/03 05:30:41;;;;;;;4.97;2.90;;;;;;;2.96;95.91;103231.16;4916057;29;20038;-86
2023/04/03 05:33:06;;;;;;;5.80;3.00;;;;;;;2.86;95.76;103225.56;4915442;29;20028;-87
2023/04/03 05:35:32;;;;;;;5.10;2.67;;;;;;;2.83;95.69;103229.72;4915859;29;20114;-88
2023/04/03 05:37:57;;;;;;;7.22;3.30;;;;;;;2.84;95.91;103220.31;4916789;29;20118;-89
2023/04/03 05:40:23;;;;;;;4.32;2.83;;;;;;;2.66;97.49;103251.19;4916166;29;20051;-88
2023/04/03 05:42:48;;;;;;;6.00;2.65;;;;;;;2.93;97.06;103251.09;4932685;29;20064;-88
2023/04/03 05:45:15;;;;;;;8.23;2.83;;;;;;;2.75;97.68;103251.53;4920258;29;20063;-87
2023/04/03 05:47:41;;;;;;;7.68;3.08;;;;;;;2.19;99.72;103236.19;4918523;29;20030;-87
2023/04/03 05:50:06;;;;;;;7.82;2.90;;;;;;;2.23;100.00;103251.13;4928298;29;20138;-87
2023/04/03 05:52:36;;;;;;;9.32;2.42;;;;;;;2.57;99.31;103261.06;4937089;29;20023;-87
2023/04/03 05:55:02;;;;;;;7.95;3.38;;;;;;;2.38;100.00;103264.25;4915521;29;20114;-87
2023/04/03 05:57:27;;;;;;;8.50;3.75;;;;;;;2.38;99.84;103239.38;4927287;29;20044;-87
2023/04/03 05:59:53;;;;;;;8.93;3.15;;;;;;;2.07;100.00;103241.03;4919172;29;20086;-87
2023/04/03 06:02:21;;;;;;;6.43;2.70;;;;;;;2.30;100.00;103241.75;4916130;29;20047;-87
2023/04/03 06:04:47;;;;;;;6.35;2.30;;;;;;;2.35;100.00;103256.47;4916798;29;20032;-85
2023/04/03 06:07:16;;;;;;;7.50;2.67;;;;;;;2.52;100.00;103267.38;4937095;29;20039;-87
2023/04/03 06:09:42;;;;;;;3.25;2.38;;;;;;;2.74;100.00;103263.66;4919735;29;20099;-80
2023/04/03 06:12:08;;;;;;;7.88;2.90;;;;;;;2.79;99.43;103264.53;4931886;29;20130;-82
2023/04/03 06:14:34;;;;;;;5.18;2.88;;;;;;;2.62;98.61;103250.88;4933815;29;20743;-82
2023/04/03 06:16:59;;;;;;;6.20;3.33;;;;;;;2.78;99.35;103262.88;4932241;29;20043;-82
2023/04/03 06:19:25;;;;;;;5.10;2.72;;;;;;;2.55;100.00;103264.09;4915504;29;20043;-82
2023/04/03 06:21:51;;;;;;;4.70;2.65;;;;;;;2.47;99.90;103270.13;4931336;29;20158;-82
2023/04/03 06:24:18;;;;;;;6.95;3.83;;;;;;;2.11;100.00;103261.53;4929224;29;20039;-82
2023/04/03 06:26:44;;;;;;;8.30;3.25;;;;;;;2.73;100.00;103278.59;4915061;29;20032;-83
2023/04/03 06:29:10;;;;;;;5.78;2.83;;;;;;;2.15;100.00;103265.44;4906700;29;20115;-82
2023/04/03 06:31:36;;;;;;;6.05;3.28;;;;;;;1.81;100.00;103268.41;4925489;29;20079;-82
2023/04/03 06:34:02;;;;;;;8.38;2.80;;;;;;;2.20;100.00;103276.50;4914437;29;20031;-82
2023/04/03 06:36:28;;;;;;;8.60;3.15;;;;;;;2.18;100.00;103273.19;4924842;29;20123;-82
2023/04/03 06:38:54;;;;;;;10.18;3.28;;;;;;;2.24;100.00;103288.72;4912984;29;20031;-82
2023/04/03 06:41:19;;;;;;;5.68;2.70;;;;;;;2.03;100.00;103290.44;4920914;29;20039;-82
2023/04/03 06:43:45;;;;;;;10.23;3.25;;;;;;;1.66;100.00;103297.75;4912104;29;20038;-81
2023/04/03 06:46:22;;;;;;;9.55;2.75;;;;;;;1.81;100.00;103298.78;4926871;29;20409;-82
2023/04/03 06:48:48;;;;;;;8.23;3.60;;;;;;;1.96;100.00;103297.25;4928509;29;20090;-82
2023/04/03 06:51:25;;;;;;;6.60;3.20;;;;;;;1.91;100.00;103305.50;4930705;29;20048;-83
2023/04/03 06:53:55;;;;;;;10.20;3.10;;;;;;;1.78;100.00;103295.69;4929838;29;20043;-83
2023/04/03 06:56:21;;;;;;;8.70;3.03;;;;;;;2.13;100.00;103300.78;4914367;29;20051;-82
2023/04/03 06:58:47;;;;;;;5.65;2.83;;;;;;;1.83;100.00;103304.88;4925977;29;20038;-82
2023/04/03 07:01:15;;;;;;;8.68;3.83;;;;;;;2.14;100.00;103316.25;4909718;29;20031;-82
2023/04/03 07:03:40;;;;;;;7.60;2.55;;;;;;;2.24;100.00;103299.78;4924843;29;20028;-82
2023/04/03 07:06:07;;;;;;;5.45;2.70;;;;;;;2.02;100.00;103327.47;4925884;29;20041;-83
2023/04/03 07:08:33;;;;;;;7.95;2.38;;;;;;;2.69;100.00;103317.00;4913100;29;20031;-77
2023/04/03 07:10:59;;;;;;;6.75;2.83;;;;;;;2.84;100.00;103316.28;4933529;29;20674;-77
2023/04/03 07:13:25;;;;;;;8.20;3.00;;;;;;;2.59;100.00;103316.94;4927553;29;20073;-77
2023/04/03 07:15:50;;;;;;;9.57;3.45;;;;;;;2.92;98.88;103318.56;4928325;29;20106;-77
2023/04/03 07:18:17;;;;;;;10.60;3.17;;;;;;;2.96;98.09;103328.00;4930417;29;20134;-76
2023/04/03 07:20:43;;;;;;;9.02;4.07;;;;;;;2.92;98.94;103326.88;4933351;29;20378;-77
2023/04/03 07:23:08;;;;;;;5.38;2.80;;;;;;;3.01;98.18;103324.44;4933624;29;20042;-77
2023/04/03 07:25:34;;;;;;;6.18;2.70;;;;;;;2.65;99.24;103330.53;4926142;29;20443;-77
2023/04/03 07:27:59;;;;;;;5.18;2.42;;;;;;;2.82;98.83;103337.84;4915386;29;20110;-77
2023/04/03 07:30:25;;;;;;;4.60;2.65;;;;;;;3.18;98.05;103336.19;4927077;29;20036;-77
2023/04/03 07:32:51;;;;;;;5.25;2.47;;;;;;;3.28;96.76;103346.47;4911027;29;20031;-77
2023/04/03 07:35:17;;;;;;;5.57;2.88;;;;;;;3.30;96.26;103343.44;4929762;29;20036;-77
2023/04/03 07:37:42;;;;;;;8.20;2.55;;;;;;;3.02;96.37;103335.25;4924776;29;20038;-77
2023/04/03 07:40:08;;;;;;;3.55;2.10;;;;;;;3.09;95.14;103336.94;4921762;29;20019;-77
2023/04/03 07:42:34;;;;;;;9.05;2.20;;;;;;;3.15;94.95;103338.66;4928224;29;20103;-77
2023/04/03 07:45:00;;;;;;;11.40;2.65;;;;;;;3.10;95.51;103344.13;4931091;29;20106;-78
2023/04/03 07:47:26;;;;;;;5.18;1.90;;;;;;;3.29;95.90;103337.09;4928807;29;20103;-77
2023/04/03 07:49:52;;;;;;;8.18;2.65;;;;;;;3.13;93.96;103344.44;4912357;29;20036;-77
2023/04/03 07:52:17;;;;;;;3.55;2.03;;;;;;;3.28;94.34;103345.66;4925410;29;20059;-78
2023/04/03 07:54:42;;;;;;;7.53;2.47;;;;;;;3.28;93.44;103346.47;4908811;29;20187;-77
2023/04/03 07:57:08;;;;;;;8.00;3.13;;;;;;;3.40;92.46;103344.34;4928529;29;20119;-78
2023/04/03 07:59:33;;;;;;;3.72;2.15;;;;;;;3.37;90.99;103344.88;4924944;29;20032;-77
2023/04/03 08:01:59;;;;;;;7.43;2.22;;;;;;;3.46;90.90;103343.25;4904589;29;20035;-77
2023/04/03 08:04:25;;;;;;;6.18;2.47;;;;;;;3.37;91.13;103339.34;4932543;29;20207;-77
2023/04/03 08:06:51;;;;;;;4.35;2.10;;;;;;;3.58;91.94;103358.81;4932861;29;21520;-77
2023/04/03 08:09:17;;;;;;;3.70;1.92;;;;;;;3.42;88.58;103353.19;4932050;29;20063;-77
2023/04/03 08:11:44;;;;;;;2.58;1.52;;;;;;;3.60;88.05;103353.84;4928224;29;20102;-77
2023/04/03 08:14:15;;;;;;;7.35;2.05;;;;;;;3.66;87.90;103358.31;4907870;29;20067;-78
2023/04/03 08:16:40;;;;;;;3.28;1.80;;;;;;;3.60;85.38;103348.31;4914909;29;20036;-77
2023/04/03 08:19:07;;;;;;;4.72;2.17;;;;;;;3.78;86.19;103364.44;4915444;29;20035;-77
2023/04/03 08:21:32;;;;;;;3.25;1.58;;;;;;;3.81;86.11;103354.75;4913054;29;20036;-76
2023/04/03 08:23:58;;;;;;;5.82;2.55;;;;;;;3.78;81.33;103358.91;4923096;29;20066;-76
2023/04/03 08:26:23;;;;;;;5.22;2.35;;;;;;;3.81;83.05;103366.66;4932197;29;20038;-78
2023/04/03 08:28:49;;;;;;;4.40;1.50;;;;;;;3.91;79.26;103356.75;4911090;29;20039;-79
2023/04/03 08:31:18;;;;;;;6.82;1.90;;;;;;;3.98;79.86;103360.09;4923631;29;20043;-78
2023/04/03 08:33:43;;;;;;;3.30;2.15;;;;;;;4.08;81.36;103366.50;4926031;29;20405;-78
2023/04/03 08:36:18;;;;;;;4.60;1.90;;;;;;;4.13;76.87;103373.97;4908957;29;20028;-78
2023/04/03 08:38:43;;;;;;;5.60;2.10;;;;;;;4.16;76.78;103372.63;4925384;29;21497;-78
2023/04/03 08:41:30;;;;;;;8.32;2.47;;;;;;;4.41;76.46;103369.06;4928314;29;20120;-79
2023/04/03 08:44:04;;;;;;;11.75;1.98;;;;;;;4.38;73.79;103378.75;4928790;29;20058;-77
2023/04/03 08:47:02;;;;;;;5.28;1.85;;;;;;;4.44;75.01;103376.84;4923065;29;20043;-77
2023/04/03 08:49:35;;;;;;;3.15;1.90;;;;;;;4.50;76.88;103377.69;4903607;29;21011;-78
2023/04/03 08:52:05;;;;;;;3.95;1.77;;;;;;;4.64;76.36;103373.28;4901696;29;20092;-78
2023/04/03 08:54:35;;;;;;;5.03;1.77;;;;;;;4.79;77.97;103369.66;4926398;29;20032;-79
2023/04/03 08:57:05;;;;;;;2.28;1.48;;;;;;;4.92;76.99;103369.09;4928378;29;20078;-79
2023/04/03 08:59:34;;;;;;;2.38;1.75;;;;;;;4.86;74.15;103376.59;4928438;29;20031;-79
2023/04/03 09:02:06;;;;;;;7.53;2.90;;;;;;;4.89;74.49;103369.63;4908158;29;20039;-80
2023/04/03 09:04:33;;;;;;;4.90;1.47;;;;;;;4.76;74.88;103364.66;4924604;29;20051;-79
2023/04/03 09:07:08;;;;;;;3.47;1.63;;;;;;;4.99;72.69;103364.09;4930964;29;20038;-79
2023/04/03 09:09:41;;;;;;;4.93;1.50;;;;;;;5.09;69.48;103361.31;4914035;29;20490;-78
2023/04/03 09:12:12;;;;;;;3.30;1.40;;;;;;;5.15;70.88;103364.09;4930854;29;20397;-78
2023/04/03 09:14:40;;;;;;;2.63;1.38;;;;;;;5.20;69.46;103353.78;4925183;29;20031;-79
2023/04/03 09:17:34;;;;;;;3.70;1.33;;;;;;;5.16;68.04;103358.22;4910315;29;20383;-79
2023/04/03 09:20:28;;;;;;;2.78;1.15;;;;;;;5.67;65.81;103358.13;4915560;29;20054;-78
2023/04/03 09:22:55;;;;;;;4.95;2.00;;;;;;;5.62;66.49;103355.34;4933082;29;20043;-79
2023/04/03 09:25:30;;;;;;;4.00;1.40;;;;;;;5.65;65.43;103349.22;4932384;29;20064;-79
2023/04/03 09:27:56;;;;;;;1.50;1.13;;;;;;;5.66;65.58;103345.31;4931545;29;20102;-78
2023/04/03 09:30:25;;;;;;;1.95;1.35;;;;;;;5.60;65.61;103351.19;4928576;29;20394;-78
2023/04/03 09:32:53;;;;;;;3.67;1.40;;;;;;;5.79;64.26;103341.09;4915207;29;20027;-78
2023/04/03 09:35:23;;;;;;;1.92;1.08;;;;;;;5.91;61.25;103341.59;4929168;29;20486;-79
2023/04/03 09:37:52;;;;;;;3.25;1.35;;;;;;;6.14;62.03;103344.03;4908546;29;20032;-79
2023/04/03 09:40:38;;;;;;;3.28;1.27;;;;;;;6.06;60.85;103343.50;4923702;29;20474;-79
2023/04/03 09:43:15;;;;;;;6.05;1.20;;;;;;;6.01;60.65;103348.25;4926905;29;20043;-78
2023/04/03 09:45:41;;;;;;;1.75;1.40;;;;;;;6.25;58.32;103337.28;4904086;29;20497;-79
2023/04/03 09:48:12;;;;;;;2.88;1.10;;;;;;;6.43;59.01;103346.88;4911477;29;20300;-77
2023/04/03 09:50:59;;;;;;;7.50;1.50;;;;;;;6.47;55.66;103345.16;4926218;29;20055;-79
2023/04/03 09:53:38;;;;;;;2.60;1.00;;;;;;;6.35;54.75;103344.72;4924941;29;20036;-79
2023/04/03 09:56:23;;;;;;;2.13;1.23;;;;;;;6.43;55.54;103341.31;4923801;29;20035;-79
2023/04/03 09:58:52;;;;;;;7.05;1.65;;;;;;;6.50;55.22;103348.22;4915383;29;20379;-79
2023/04/03 10:01:26;;;;;;;3.92;1.10;;;;;;;6.65;54.82;103349.22;4928449;29;20114;-79
2023/04/03 10:04:06;;;;;;;5.10;1.58;;;;;;;6.70;57.88;103338.03;4914116;29;20132;-79
2023/04/03 10:06:35;;;;;;;3.90;1.00;;;;;;;6.91;51.53;103331.19;4906287;29;20884;-79
2023/04/03 10:09:15;;;;;;;1.55;1.13;;;;;;;7.17;52.37;103330.06;4924696;29;20036;-79
2023/04/03 10:11:56;;;;;;;0.93;0.82;;;;;;;7.11;50.68;103323.75;4924574;29;20502;-78
2023/04/03 10:14:22;;;;;;;1.63;0.90;;;;;;;7.31;51.32;103319.91;4926919;29;20047;-79
2023/04/03 10:17:00;;;;;;;4.53;1.42;;;;;;;7.45;52.60;103325.59;4904985;29;20035;-79
2023/04/03 10:19:51;;;;;;;1.23;0.95;;;;;;;7.45;52.81;103318.06;4910995;29;20137;-78
2023/04/03 10:22:41;;;;;;;2.95;1.10;;;;;;;7.51;49.09;103322.47;4931108;29;20439;-79
2023/04/03 10:25:14;;;;;;;2.15;1.00;;;;;;;7.54;49.42;103310.69;4926621;29;20461;-78
2023/04/03 10:27:49;;;;;;;1.85;1.10;;;;;;;7.59;49.47;103311.75;4919147;29;20761;-79
2023/04/03 10:31:14;;;;;;;1.20;0.75;;;;;;;7.84;48.76;103314.25;4918676;29;20088;-80
2023/04/03 10:34:04;;;;;;;5.00;1.10;;;;;;;8.08;49.11;103302.19;4832887;29;20038;-79
2023/04/03 10:37:19;;;;;;;1.25;0.80;;;;;;;8.08;49.64;103305.81;4919050;29;20047;-79
2023/04/03 10:39:56;;;;;;;1.83;1.08;;;;;;;8.08;48.38;103304.97;4896630;29;20071;-79
2023/04/03 10:42:48;;;;;;;3.10;1.10;;;;;;;8.09;49.88;103301.88;4925266;29;20078;-78
2023/04/03 10:45:34;;;;;;;1.90;0.80;;;;;;;8.29;48.19;103303.53;4927751;29;20486;-79
2023/04/03 10:48:27;;;;;;;2.05;0.88;;;;;;;8.42;48.11;103296.38;4922278;29;20030;-78
2023/04/03 10:51:01;;;;;;;3.08;1.33;;;;;;;8.37;48.85;103290.88;4921645;29;20055;-78
2023/04/03 10:53:57;;;;;;;1.13;0.90;;;;;;;8.74;46.59;103292.75;4926334;29;20393;-79
2023/04/03 10:56:50;;;;;;;1.90;1.08;;;;;;;8.68;46.15;103298.75;4926247;29;20032;-79
2023/04/03 10:59:45;;;;;;;2.30;1.10;;;;;;;8.90;45.01;103284.94;4923087;29;20580;-78
2023/04/03 11:02:41;;;;;;;2.45;1.10;;;;;;;9.01;47.19;103284.75;4917940;29;20138;-79
2023/04/03 11:05:21;;;;;;;5.05;1.67;;;;;;;8.97;45.55;103283.72;4923502;29;20050;-78
2023/04/03 11:07:51;;;;;;;3.95;2.03;;;;;;;8.96;44.66;103282.88;4921356;29;20410;-78
2023/04/03 11:10:31;;;;;;;1.58;0.88;;;;;;;8.85;45.18;103275.81;4901938;29;20607;-78
2023/04/03 11:13:09;;;;;;;2.20;1.42;;;;;;;9.07;45.13;103286.31;4909001;29;20446;-78
2023/04/03 11:15:35;;;;;;;2.30;1.08;;;;;;;9.20;45.88;103279.09;4905225;29;20118;-78
2023/04/03 11:18:12;;;;;;;3.33;1.20;;;;;;;9.34;45.73;103272.34;4903351;29;20049;-79
2023/04/03 11:20:44;;;;;;;3.28;0.93;;;;;;;9.51;45.18;103270.91;4919923;29;20114;-79
2023/04/03 11:23:26;;;;;;;4.82;1.15;;;;;;;9.57;43.38;103270.47;4914842;29;20417;-78
2023/04/03 11:25:59;;;;;;;3.30;1.10;;;;;;;9.52;44.55;103266.94;4912714;29;20385;-79
2023/04/03 11:28:24;;;;;;;3.60;1.30;;;;;;;9.63;43.94;103264.75;4914481;29;20064;-78
2023/04/03 11:31:28;;;;;;;51.72;27.60;;;;;;;13.08;73.01;103258.13;4904294;29;20023;-82
2023/04/03 11:34:13;;;;;;;56.30;28.40;;;;;;;14.23;64.91;103265.53;4877440;29;20044;-81
2023/04/03 11:36:47;;;;;;;3.20;1.05;;;;;;;12.61;38.64;103266.56;4922472;29;20119;-79
2023/04/03 11:39:24;;;;;;;3.50;1.58;;;;;;;10.64;40.84;103257.88;4921990;29;20043;-84
2023/04/03 11:41:49;;;;;;;10.63;5.47;;;;;;;9.92;43.75;103256.00;4932140;29;20114;-85